Huntsville, Texas
Current Conditions -  °F | °C
As of 7:53 AM on Sunday 25 Jan 2015 (Local Time) from KUTS Reporting Station
Clear Clear  
Wind Chill: 41°   Ceiling: Unl
Heat Index: 45°   Visibility: 10mi
Dew Point: 36°   Wind: 8mph
Humidity: 71%   Direction: 220°SW
Pressure: 30"   Gusts: NA
Location:  30.72°N, 95.55°W
Report Text: KUTS 251353Z AUTO 22007KT 10SM CLR 07/02 A3000 RMK AO2 SLP157 T00720022
Loading
Personal Weather Stations






























Interactive Weather Map New forecast layout! Learn more

10-Day Weather Forecast

Advertisements
Track Severe Weather on mobile